sensor_id;sensor_type;location;lat;lon;timestamp;P1;durP1;ratioP1;P2;durP2;ratioP2
17917;SDS011;9084;50.956;3.106;2023-04-03T00:00:09;8.13;;;7.00;;
17917;SDS011;9084;50.956;3.106;2023-04-03T00:02:38;7.93;;;7.23;;
17917;SDS011;9084;50.956;3.106;2023-04-03T00:05:06;8.80;;;8.00;;
17917;SDS011;9084;50.956;3.106;2023-04-03T00:07:32;9.47;;;8.63;;
17917;SDS011;9084;50.956;3.106;2023-04-03T00:10:00;9.07;;;8.17;;
17917;SDS011;9084;50.956;3.106;2023-04-03T00:12:25;8.90;;;8.10;;
17917;SDS011;9084;50.956;3.106;2023-04-03T00:14:51;8.87;;;7.97;;
17917;SDS011;9084;50.956;3.106;2023-04-03T00:17:17;7.93;;;7.23;;
17917;SDS011;9084;50.956;3.106;2023-04-03T00:19:42;8.80;;;7.93;;
17917;SDS011;9084;50.956;3.106;2023-04-03T00:22:10;9.10;;;8.20;;
17917;SDS011;9084;50.956;3.106;2023-04-03T00:24:36;7.93;;;7.17;;
17917;SDS011;9084;50.956;3.106;2023-04-03T00:27:01;7.77;;;7.07;;
17917;SDS011;9084;50.956;3.106;2023-04-03T00:29:29;8.60;;;6.80;;
17917;SDS011;9084;50.956;3.106;2023-04-03T00:31:58;7.30;;;6.70;;
17917;SDS011;9084;50.956;3.106;2023-04-03T00:34:24;7.53;;;6.83;;
17917;SDS011;9084;50.956;3.106;2023-04-03T00:36:49;7.23;;;6.63;;
17917;SDS011;9084;50.956;3.106;2023-04-03T00:39:16;7.13;;;6.53;;
17917;SDS011;9084;50.956;3.106;2023-04-03T00:41:42;8.20;;;7.50;;
17917;SDS011;9084;50.956;3.106;2023-04-03T00:47:05;7.57;;;6.87;;
17917;SDS011;9084;50.956;3.106;2023-04-03T00:49:33;7.50;;;6.80;;
17917;SDS011;9084;50.956;3.106;2023-04-03T00:52:00;7.53;;;6.83;;
17917;SDS011;9084;50.956;3.106;2023-04-03T00:54:29;8.13;;;6.60;;
17917;SDS011;9084;50.956;3.106;2023-04-03T00:56:55;7.87;;;7.07;;
17917;SDS011;9084;50.956;3.106;2023-04-03T00:59:27;6.97;;;6.37;;
17917;SDS011;9084;50.956;3.106;2023-04-03T01:01:58;7.50;;;6.83;;
17917;SDS011;9084;50.956;3.106;2023-04-03T01:06:57;6.87;;;6.37;;
17917;SDS011;9084;50.956;3.106;2023-04-03T01:09:26;7.00;;;6.40;;
17917;SDS011;9084;50.956;3.106;2023-04-03T01:11:53;7.50;;;6.73;;
17917;SDS011;9084;50.956;3.106;2023-04-03T01:14:21;7.90;;;7.20;;
17917;SDS011;9084;50.956;3.106;2023-04-03T01:16:52;7.37;;;6.67;;
17917;SDS011;9084;50.956;3.106;2023-04-03T01:19:18;7.97;;;7.27;;
17917;SDS011;9084;50.956;3.106;2023-04-03T01:22:02;8.13;;;7.43;;
17917;SDS011;9084;50.956;3.106;2023-04-03T01:24:39;8.03;;;7.23;;
17917;SDS011;9084;50.956;3.106;2023-04-03T01:27:06;8.20;;;7.40;;
17917;SDS011;9084;50.956;3.106;2023-04-03T01:29:36;7.93;;;7.23;;
17917;SDS011;9084;50.956;3.106;2023-04-03T01:32:07;8.17;;;7.33;;
17917;SDS011;9084;50.956;3.106;2023-04-03T01:34:33;8.00;;;7.30;;
17917;SDS011;9084;50.956;3.106;2023-04-03T01:36:58;7.33;;;6.63;;
17917;SDS011;9084;50.956;3.106;2023-04-03T01:39:27;8.13;;;7.43;;
17917;SDS011;9084;50.956;3.106;2023-04-03T01:41:52;7.70;;;6.90;;
17917;SDS011;9084;50.956;3.106;2023-04-03T01:44:21;7.63;;;6.67;;
17917;SDS011;9084;50.956;3.106;2023-04-03T01:46:46;8.47;;;7.53;;
17917;SDS011;9084;50.956;3.106;2023-04-03T01:49:12;7.47;;;6.77;;
17917;SDS011;9084;50.956;3.106;2023-04-03T01:51:38;8.50;;;7.53;;
17917;SDS011;9084;50.956;3.106;2023-04-03T01:54:05;8.17;;;7.40;;
17917;SDS011;9084;50.956;3.106;2023-04-03T01:56:31;7.73;;;7.03;;
17917;SDS011;9084;50.956;3.106;2023-04-03T01:58:59;8.47;;;7.67;;
17917;SDS011;9084;50.956;3.106;2023-04-03T02:01:27;9.87;;;7.10;;
17917;SDS011;9084;50.956;3.106;2023-04-03T02:03:55;7.30;;;6.63;;
17917;SDS011;9084;50.956;3.106;2023-04-03T02:06:20;7.93;;;7.13;;
17917;SDS011;9084;50.956;3.106;2023-04-03T02:08:48;7.17;;;6.50;;
17917;SDS011;9084;50.956;3.106;2023-04-03T02:11:14;7.37;;;6.63;;
17917;SDS011;9084;50.956;3.106;2023-04-03T02:13:40;7.03;;;6.33;;
17917;SDS011;9084;50.956;3.106;2023-04-03T02:16:06;6.77;;;6.07;;
17917;SDS011;9084;50.956;3.106;2023-04-03T02:18:33;7.27;;;6.17;;
17917;SDS011;9084;50.956;3.106;2023-04-03T02:20:59;6.87;;;6.17;;
17917;SDS011;9084;50.956;3.106;2023-04-03T02:23:24;7.93;;;6.90;;
17917;SDS011;9084;50.956;3.106;2023-04-03T02:25:50;7.20;;;6.57;;
17917;SDS011;9084;50.956;3.106;2023-04-03T02:28:18;6.73;;;6.23;;
17917;SDS011;9084;50.956;3.106;2023-04-03T02:30:43;7.70;;;7.00;;
17917;SDS011;9084;50.956;3.106;2023-04-03T02:33:09;8.23;;;7.53;;
17917;SDS011;9084;50.956;3.106;2023-04-03T02:35:35;7.50;;;6.90;;
17917;SDS011;9084;50.956;3.106;2023-04-03T02:38:01;8.43;;;7.63;;
17917;SDS011;9084;50.956;3.106;2023-04-03T02:40:27;7.87;;;6.97;;
17917;SDS011;9084;50.956;3.106;2023-04-03T02:42:55;8.17;;;7.47;;
17917;SDS011;9084;50.956;3.106;2023-04-03T02:45:21;8.20;;;7.40;;
17917;SDS011;9084;50.956;3.106;2023-04-03T02:47:47;8.50;;;7.70;;
17917;SDS011;9084;50.956;3.106;2023-04-03T02:50:14;7.47;;;6.87;;
17917;SDS011;9084;50.956;3.106;2023-04-03T02:52:42;7.63;;;7.00;;
17917;SDS011;9084;50.956;3.106;2023-04-03T02:55:13;7.23;;;6.63;;
17917;SDS011;9084;50.956;3.106;2023-04-03T02:57:41;7.67;;;6.90;;
17917;SDS011;9084;50.956;3.106;2023-04-03T03:00:09;8.77;;;7.60;;
17917;SDS011;9084;50.956;3.106;2023-04-03T03:02:35;8.17;;;7.37;;
17917;SDS011;9084;50.956;3.106;2023-04-03T03:05:00;7.80;;;7.10;;
17917;SDS011;9084;50.956;3.106;2023-04-03T03:07:26;8.00;;;7.30;;
17917;SDS011;9084;50.956;3.106;2023-04-03T03:09:52;7.10;;;6.50;;
17917;SDS011;9084;50.956;3.106;2023-04-03T03:12:20;7.43;;;6.73;;
17917;SDS011;9084;50.956;3.106;2023-04-03T03:14:49;7.83;;;7.03;;
17917;SDS011;9084;50.956;3.106;2023-04-03T03:17:15;7.10;;;6.40;;
17917;SDS011;9084;50.956;3.106;2023-04-03T03:19:41;7.87;;;6.20;;
17917;SDS011;9084;50.956;3.106;2023-04-03T03:22:10;7.13;;;6.43;;
17917;SDS011;9084;50.956;3.106;2023-04-03T03:24:36;6.63;;;6.03;;
17917;SDS011;9084;50.956;3.106;2023-04-03T03:27:02;7.57;;;6.87;;
17917;SDS011;9084;50.956;3.106;2023-04-03T03:29:27;7.00;;;6.30;;
17917;SDS011;9084;50.956;3.106;2023-04-03T03:31:53;7.23;;;6.43;;
17917;SDS011;9084;50.956;3.106;2023-04-03T03:34:19;6.80;;;6.20;;
17917;SDS011;9084;50.956;3.106;2023-04-03T03:36:44;6.93;;;6.33;;
17917;SDS011;9084;50.956;3.106;2023-04-03T03:39:13;7.47;;;6.77;;
17917;SDS011;9084;50.956;3.106;2023-04-03T03:41:38;7.10;;;6.50;;
17917;SDS011;9084;50.956;3.106;2023-04-03T03:44:04;8.60;;;6.13;;
17917;SDS011;9084;50.956;3.106;2023-04-03T03:46:30;6.17;;;5.67;;
17917;SDS011;9084;50.956;3.106;2023-04-03T03:48:56;5.60;;;5.03;;
17917;SDS011;9084;50.956;3.106;2023-04-03T03:51:21;6.47;;;5.67;;
17917;SDS011;9084;50.956;3.106;2023-04-03T03:53:49;8.07;;;6.07;;
17917;SDS011;9084;50.956;3.106;2023-04-03T03:56:15;6.37;;;5.77;;
17917;SDS011;9084;50.956;3.106;2023-04-03T03:58:46;6.77;;;6.17;;
17917;SDS011;9084;50.956;3.106;2023-04-03T04:01:11;6.63;;;6.03;;
17917;SDS011;9084;50.956;3.106;2023-04-03T04:03:37;6.97;;;6.37;;
17917;SDS011;9084;50.956;3.106;2023-04-03T04:06:03;7.17;;;6.47;;
17917;SDS011;9084;50.956;3.106;2023-04-03T04:08:31;7.07;;;6.27;;
17917;SDS011;9084;50.956;3.106;2023-04-03T04:10:59;6.20;;;5.63;;
17917;SDS011;9084;50.956;3.106;2023-04-03T04:13:24;7.53;;;6.40;;
17917;SDS011;9084;50.956;3.106;2023-04-03T04:15:50;7.03;;;6.33;;
17917;SDS011;9084;50.956;3.106;2023-04-03T04:18:16;6.53;;;5.97;;
17917;SDS011;9084;50.956;3.106;2023-04-03T04:20:45;7.77;;;7.00;;
17917;SDS011;9084;50.956;3.106;2023-04-03T04:23:13;7.30;;;6.70;;
17917;SDS011;9084;50.956;3.106;2023-04-03T04:25:41;7.70;;;6.97;;
17917;SDS011;9084;50.956;3.106;2023-04-03T04:28:15;7.50;;;6.80;;
17917;SDS011;9084;50.956;3.106;2023-04-03T04:30:44;7.90;;;7.20;;
17917;SDS011;9084;50.956;3.106;2023-04-03T04:33:12;8.40;;;7.70;;
17917;SDS011;9084;50.956;3.106;2023-04-03T04:35:39;8.50;;;7.60;;
17917;SDS011;9084;50.956;3.106;2023-04-03T04:38:06;7.83;;;7.10;;
17917;SDS011;9084;50.956;3.106;2023-04-03T04:40:33;8.77;;;7.97;;
17917;SDS011;9084;50.956;3.106;2023-04-03T04:43:02;11.37;;;7.70;;
17917;SDS011;9084;50.956;3.106;2023-04-03T04:45:31;8.53;;;7.73;;
17917;SDS011;9084;50.956;3.106;2023-04-03T04:47:56;8.37;;;7.57;;
17917;SDS011;9084;50.956;3.106;2023-04-03T04:50:22;8.53;;;7.70;;
17917;SDS011;9084;50.956;3.106;2023-04-03T04:52:50;7.83;;;7.13;;
17917;SDS011;9084;50.956;3.106;2023-04-03T04:55:16;7.57;;;6.77;;
17917;SDS011;9084;50.956;3.106;2023-04-03T04:57:41;7.83;;;7.13;;
17917;SDS011;9084;50.956;3.106;2023-04-03T05:00:07;7.73;;;7.03;;
17917;SDS011;9084;50.956;3.106;2023-04-03T05:02:36;7.73;;;6.93;;
17917;SDS011;9084;50.956;3.106;2023-04-03T05:05:01;8.00;;;7.30;;
17917;SDS011;9084;50.956;3.106;2023-04-03T05:07:27;7.73;;;7.03;;
17917;SDS011;9084;50.956;3.106;2023-04-03T05:09:53;8.67;;;7.80;;
17917;SDS011;9084;50.956;3.106;2023-04-03T05:12:21;7.37;;;6.73;;
17917;SDS011;9084;50.956;3.106;2023-04-03T05:14:49;8.23;;;7.50;;
17917;SDS011;9084;50.956;3.106;2023-04-03T05:17:14;9.50;;;7.07;;
17917;SDS011;9084;50.956;3.106;2023-04-03T05:19:43;7.47;;;6.87;;
17917;SDS011;9084;50.956;3.106;2023-04-03T05:22:11;7.03;;;6.43;;
17917;SDS011;9084;50.956;3.106;2023-04-03T05:24:36;10.27;;;7.77;;
17917;SDS011;9084;50.956;3.106;2023-04-03T05:27:02;8.13;;;6.97;;
17917;SDS011;9084;50.956;3.106;2023-04-03T05:29:28;8.23;;;7.10;;
17917;SDS011;9084;50.956;3.106;2023-04-03T05:31:54;7.37;;;6.67;;
17917;SDS011;9084;50.956;3.106;2023-04-03T05:34:20;7.87;;;6.73;;
17917;SDS011;9084;50.956;3.106;2023-04-03T05:36:46;7.30;;;6.40;;
17917;SDS011;9084;50.956;3.106;2023-04-03T05:39:11;6.83;;;6.10;;
17917;SDS011;9084;50.956;3.106;2023-04-03T05:41:37;6.53;;;5.63;;
17917;SDS011;9084;50.956;3.106;2023-04-03T05:44:03;7.50;;;6.67;;
17917;SDS011;9084;50.956;3.106;2023-04-03T05:46:31;9.03;;;8.13;;
17917;SDS011;9084;50.956;3.106;2023-04-03T05:48:56;9.53;;;8.57;;
17917;SDS011;9084;50.956;3.106;2023-04-03T05:51:25;11.97;;;9.83;;
17917;SDS011;9084;50.956;3.106;2023-04-03T05:53:58;10.13;;;8.43;;
17917;SDS011;9084;50.956;3.106;2023-04-03T05:56:33;9.93;;;7.03;;
17917;SDS011;9084;50.956;3.106;2023-04-03T05:58:59;7.30;;;5.70;;
17917;SDS011;9084;50.956;3.106;2023-04-03T06:01:25;8.60;;;5.47;;
17917;SDS011;9084;50.956;3.106;2023-04-03T06:03:51;8.20;;;5.40;;
17917;SDS011;9084;50.956;3.106;2023-04-03T06:06:17;5.60;;;5.10;;
17917;SDS011;9084;50.956;3.106;2023-04-03T06:08:42;5.67;;;4.93;;
17917;SDS011;9084;50.956;3.106;2023-04-03T06:11:08;7.90;;;5.30;;
17917;SDS011;9084;50.956;3.106;2023-04-03T06:13:34;5.73;;;5.13;;
17917;SDS011;9084;50.956;3.106;2023-04-03T06:16:00;7.83;;;5.80;;
17917;SDS011;9084;50.956;3.106;2023-04-03T06:18:29;6.30;;;5.80;;
17917;SDS011;9084;50.956;3.106;2023-04-03T06:20:55;5.73;;;5.00;;
17917;SDS011;9084;50.956;3.106;2023-04-03T06:23:20;6.93;;;5.77;;
17917;SDS011;9084;50.956;3.106;2023-04-03T06:25:46;6.73;;;5.47;;
17917;SDS011;9084;50.956;3.106;2023-04-03T06:28:12;6.27;;;5.67;;
17917;SDS011;9084;50.956;3.106;2023-04-03T06:30:40;6.13;;;5.47;;
17917;SDS011;9084;50.956;3.106;2023-04-03T06:33:06;6.77;;;6.10;;
17917;SDS011;9084;50.956;3.106;2023-04-03T06:35:31;5.70;;;5.10;;
17917;SDS011;9084;50.956;3.106;2023-04-03T06:38:05;5.97;;;5.47;;
17917;SDS011;9084;50.956;3.106;2023-04-03T06:40:34;6.57;;;5.20;;
17917;SDS011;9084;50.956;3.106;2023-04-03T06:43:00;7.90;;;5.13;;
17917;SDS011;9084;50.956;3.106;2023-04-03T06:45:28;6.47;;;5.10;;
17917;SDS011;9084;50.956;3.106;2023-04-03T06:47:57;5.77;;;5.10;;
17917;SDS011;9084;50.956;3.106;2023-04-03T06:50:25;6.13;;;5.43;;
17917;SDS011;9084;50.956;3.106;2023-04-03T06:52:51;5.40;;;4.33;;
17917;SDS011;9084;50.956;3.106;2023-04-03T06:55:16;5.17;;;4.63;;
17917;SDS011;9084;50.956;3.106;2023-04-03T06:57:44;5.80;;;5.03;;
17917;SDS011;9084;50.956;3.106;2023-04-03T07:00:13;4.73;;;4.33;;
17917;SDS011;9084;50.956;3.106;2023-04-03T07:02:41;6.37;;;3.60;;
17917;SDS011;9084;50.956;3.106;2023-04-03T07:05:07;5.70;;;3.93;;
17917;SDS011;9084;50.956;3.106;2023-04-03T07:07:34;4.27;;;3.87;;
17917;SDS011;9084;50.956;3.106;2023-04-03T07:10:00;3.90;;;3.60;;
17917;SDS011;9084;50.956;3.106;2023-04-03T07:12:25;4.50;;;4.10;;
17917;SDS011;9084;50.956;3.106;2023-04-03T07:14:51;3.60;;;3.30;;
17917;SDS011;9084;50.956;3.106;2023-04-03T07:17:17;4.23;;;3.67;;
17917;SDS011;9084;50.956;3.106;2023-04-03T07:19:43;2.97;;;2.77;;
17917;SDS011;9084;50.956;3.106;2023-04-03T07:22:08;3.60;;;3.30;;
17917;SDS011;9084;50.956;3.106;2023-04-03T07:24:36;5.73;;;3.43;;
17917;SDS011;9084;50.956;3.106;2023-04-03T07:27:04;3.70;;;3.37;;
17917;SDS011;9084;50.956;3.106;2023-04-03T07:29:33;4.00;;;3.60;;
17917;SDS011;9084;50.956;3.106;2023-04-03T07:31:59;3.40;;;3.00;;
17917;SDS011;9084;50.956;3.106;2023-04-03T07:34:25;3.23;;;2.87;;
17917;SDS011;9084;50.956;3.106;2023-04-03T07:36:56;4.00;;;3.30;;
17917;SDS011;9084;50.956;3.106;2023-04-03T07:39:22;3.23;;;2.80;;
17917;SDS011;9084;50.956;3.106;2023-04-03T07:41:48;4.40;;;3.10;;
17917;SDS011;9084;50.956;3.106;2023-04-03T07:44:14;4.97;;;2.90;;
17917;SDS011;9084;50.956;3.106;2023-04-03T07:46:42;3.40;;;3.10;;
17917;SDS011;9084;50.956;3.106;2023-04-03T07:49:08;5.67;;;3.20;;
17917;SDS011;9084;50.956;3.106;2023-04-03T07:51:39;4.53;;;3.30;;
17917;SDS011;9084;50.956;3.106;2023-04-03T07:54:04;4.17;;;2.90;;
17917;SDS011;9084;50.956;3.106;2023-04-03T07:56:30;3.90;;;2.87;;
17917;SDS011;9084;50.956;3.106;2023-04-03T07:58:57;5.30;;;2.63;;
17917;SDS011;9084;50.956;3.106;2023-04-03T08:01:28;3.50;;;2.50;;
17917;SDS011;9084;50.956;3.106;2023-04-03T08:03:58;3.57;;;2.87;;
17917;SDS011;9084;50.956;3.106;2023-04-03T08:06:24;3.37;;;3.07;;
17917;SDS011;9084;50.956;3.106;2023-04-03T08:08:50;4.23;;;2.80;;
17917;SDS011;9084;50.956;3.106;2023-04-03T08:11:18;5.23;;;2.60;;
17917;SDS011;9084;50.956;3.106;2023-04-03T08:13:44;3.23;;;2.83;;
17917;SDS011;9084;50.956;3.106;2023-04-03T08:16:10;3.33;;;2.40;;
17917;SDS011;9084;50.956;3.106;2023-04-03T08:18:44;7.33;;;3.07;;
17917;SDS011;9084;50.956;3.106;2023-04-03T08:21:10;3.73;;;2.67;;
17917;SDS011;9084;50.956;3.106;2023-04-03T08:23:37;4.83;;;3.17;;
17917;SDS011;9084;50.956;3.106;2023-04-03T08:26:07;3.67;;;2.63;;
17917;SDS011;9084;50.956;3.106;2023-04-03T08:28:38;3.37;;;2.33;;
17917;SDS011;9084;50.956;3.106;2023-04-03T08:31:08;6.37;;;2.50;;
17917;SDS011;9084;50.956;3.106;2023-04-03T08:33:39;3.77;;;2.23;;
17917;SDS011;9084;50.956;3.106;2023-04-03T08:36:08;3.30;;;2.00;;
17917;SDS011;9084;50.956;3.106;2023-04-03T08:38:47;5.13;;;2.53;;
17917;SDS011;9084;50.956;3.106;2023-04-03T08:49:42;4.27;;;3.47;;
17917;SDS011;9084;50.956;3.106;2023-04-03T08:52:17;3.33;;;3.03;;
17917;SDS011;9084;50.956;3.106;2023-04-03T08:57:26;4.03;;;3.63;;
17917;SDS011;9084;50.956;3.106;2023-04-03T09:00:26;5.47;;;4.20;;
17917;SDS011;9084;50.956;3.106;2023-04-03T09:02:53;5.80;;;3.73;;
17917;SDS011;9084;50.956;3.106;2023-04-03T09:08:14;5.23;;;4.43;;
17917;SDS011;9084;50.956;3.106;2023-04-03T09:10:41;5.33;;;4.30;;
17917;SDS011;9084;50.956;3.106;2023-04-03T09:13:13;5.30;;;4.80;;
17917;SDS011;9084;50.956;3.106;2023-04-03T09:15:53;4.40;;;4.00;;
17917;SDS011;9084;50.956;3.106;2023-04-03T09:18:23;4.33;;;3.83;;
17917;SDS011;9084;50.956;3.106;2023-04-03T09:26:04;5.23;;;3.80;;
17917;SDS011;9084;50.956;3.106;2023-04-03T09:28:39;4.68;;;3.67;;
17917;SDS011;9084;50.956;3.106;2023-04-03T09:31:18;4.47;;;4.00;;
17917;SDS011;9084;50.956;3.106;2023-04-03T09:33:50;4.85;;;4.38;;
17917;SDS011;9084;50.956;3.106;2023-04-03T09:39:13;7.17;;;4.40;;
17917;SDS011;9084;50.956;3.106;2023-04-03T09:41:41;5.20;;;4.63;;
17917;SDS011;9084;50.956;3.106;2023-04-03T09:44:21;5.10;;;4.68;;
17917;SDS011;9084;50.956;3.106;2023-04-03T09:46:48;6.95;;;4.38;;
17917;SDS011;9084;50.956;3.106;2023-04-03T09:49:17;4.30;;;3.40;;
17917;SDS011;9084;50.956;3.106;2023-04-03T09:51:43;4.88;;;3.58;;
17917;SDS011;9084;50.956;3.106;2023-04-03T09:54:52;4.05;;;3.58;;
17917;SDS011;9084;50.956;3.106;2023-04-03T09:57:12;3.80;;;3.37;;
17917;SDS011;9084;50.956;3.106;2023-04-03T09:59:40;4.38;;;3.97;;
17917;SDS011;9084;50.956;3.106;2023-04-03T10:02:21;9.40;;;4.45;;
17917;SDS011;9084;50.956;3.106;2023-04-03T10:04:54;4.30;;;3.80;;
17917;SDS011;9084;50.956;3.106;2023-04-03T10:09:55;4.97;;;4.47;;
17917;SDS011;9084;50.956;3.106;2023-04-03T10:12:24;3.72;;;3.42;;
17917;SDS011;9084;50.956;3.106;2023-04-03T10:19:47;4.07;;;3.65;;
17917;SDS011;9084;50.956;3.106;2023-04-03T10:27:55;4.10;;;3.38;;
17917;SDS011;9084;50.956;3.106;2023-04-03T10:33:13;4.22;;;2.90;;
17917;SDS011;9084;50.956;3.106;2023-04-03T10:44:36;4.65;;;3.40;;
17917;SDS011;9084;50.956;3.106;2023-04-03T10:52:25;4.40;;;2.90;;
17917;SDS011;9084;50.956;3.106;2023-04-03T10:57:25;3.28;;;2.90;;
17917;SDS011;9084;50.956;3.106;2023-04-03T10:59:58;4.03;;;3.40;;
17917;SDS011;9084;50.956;3.106;2023-04-03T11:02:39;3.17;;;2.72;;
17917;SDS011;9084;50.956;3.106;2023-04-03T11:07:52;3.17;;;1.88;;
17917;SDS011;9084;50.956;3.106;2023-04-03T11:14:11;3.40;;;2.45;;
17917;SDS011;9084;50.956;3.106;2023-04-03T11:16:19;2.97;;;2.20;;
17917;SDS011;9084;50.956;3.106;2023-04-03T11:21:28;4.60;;;2.10;;
17917;SDS011;9084;50.956;3.106;2023-04-03T11:23:59;3.72;;;1.73;;
17917;SDS011;9084;50.956;3.106;2023-04-03T11:26:35;3.72;;;2.20;;
17917;SDS011;9084;50.956;3.106;2023-04-03T11:29:06;2.10;;;1.70;;
17917;SDS011;9084;50.956;3.106;2023-04-03T11:36:41;2.13;;;1.50;;
17917;SDS011;9084;50.956;3.106;2023-04-03T11:55:44;3.75;;;1.80;;
17917;SDS011;9084;50.956;3.106;2023-04-03T11:58:24;2.72;;;2.17;;
17917;SDS011;9084;50.956;3.106;2023-04-03T12:16:26;2.33;;;1.70;;
17917;SDS011;9084;50.956;3.106;2023-04-03T12:21:21;1.73;;;1.30;;
17917;SDS011;9084;50.956;3.106;2023-04-03T12:28:58;2.63;;;1.35;;
17917;SDS011;9084;50.956;3.106;2023-04-03T12:31:32;1.52;;;1.10;;
17917;SDS011;9084;50.956;3.106;2023-04-03T12:34:24;2.00;;;1.55;;
17917;SDS011;9084;50.956;3.106;2023-04-03T12:45:08;1.85;;;1.13;;
17917;SDS011;9084;50.956;3.106;2023-04-03T12:47:38;1.88;;;1.13;;
17917;SDS011;9084;50.956;3.106;2023-04-03T12:53:05;1.85;;;1.20;;
17917;SDS011;9084;50.956;3.106;2023-04-03T12:55:38;4.68;;;1.58;;
17917;SDS011;9084;50.956;3.106;2023-04-03T12:58:21;1.80;;;1.05;;
17917;SDS011;9084;50.956;3.106;2023-04-03T13:00:58;2.03;;;1.10;;
17917;SDS011;9084;50.956;3.106;2023-04-03T13:03:45;2.67;;;0.98;;
17917;SDS011;9084;50.956;3.106;2023-04-03T13:06:16;3.63;;;1.60;;
17917;SDS011;9084;50.956;3.106;2023-04-03T13:08:54;1.65;;;1.10;;
17917;SDS011;9084;50.956;3.106;2023-04-03T13:11:24;1.73;;;0.90;;
17917;SDS011;9084;50.956;3.106;2023-04-03T13:13:58;1.45;;;1.30;;
17917;SDS011;9084;50.956;3.106;2023-04-03T13:16:30;2.15;;;1.23;;
17917;SDS011;9084;50.956;3.106;2023-04-03T13:18:57;2.38;;;1.15;;
17917;SDS011;9084;50.956;3.106;2023-04-03T13:21:27;3.30;;;1.27;;
17917;SDS011;9084;50.956;3.106;2023-04-03T13:23:56;1.95;;;1.40;;
17917;SDS011;9084;50.956;3.106;2023-04-03T13:26:26;1.25;;;1.10;;
17917;SDS011;9084;50.956;3.106;2023-04-03T13:28:58;4.15;;;1.25;;
17917;SDS011;9084;50.956;3.106;2023-04-03T13:31:29;2.45;;;1.05;;
17917;SDS011;9084;50.956;3.106;2023-04-03T13:34:07;2.33;;;1.20;;
17917;SDS011;9084;50.956;3.106;2023-04-03T13:36:54;3.10;;;1.80;;
17917;SDS011;9084;50.956;3.106;2023-04-03T13:39:26;3.90;;;1.40;;
17917;SDS011;9084;50.956;3.106;2023-04-03T13:41:58;1.30;;;1.20;;
17917;SDS011;9084;50.956;3.106;2023-04-03T13:44:46;2.28;;;1.20;;
17917;SDS011;9084;50.956;3.106;2023-04-03T13:50:14;2.92;;;1.42;;
17917;SDS011;9084;50.956;3.106;2023-04-03T13:52:47;4.55;;;1.90;;
17917;SDS011;9084;50.956;3.106;2023-04-03T13:55:35;4.68;;;1.80;;
17917;SDS011;9084;50.956;3.106;2023-04-03T13:58:22;2.85;;;1.70;;
17917;SDS011;9084;50.956;3.106;2023-04-03T14:00:51;3.13;;;1.80;;
17917;SDS011;9084;50.956;3.106;2023-04-03T14:03:45;2.75;;;1.58;;
17917;SDS011;9084;50.956;3.106;2023-04-03T14:06:17;2.75;;;1.33;;
17917;SDS011;9084;50.956;3.106;2023-04-03T14:08:44;2.38;;;1.20;;
17917;SDS011;9084;50.956;3.106;2023-04-03T14:11:31;3.20;;;1.52;;
17917;SDS011;9084;50.956;3.106;2023-04-03T14:13:57;1.58;;;1.25;;
17917;SDS011;9084;50.956;3.106;2023-04-03T14:16:27;5.35;;;1.45;;
17917;SDS011;9084;50.956;3.106;2023-04-03T14:18:56;2.15;;;1.30;;
17917;SDS011;9084;50.956;3.106;2023-04-03T14:21:24;2.90;;;1.60;;
17917;SDS011;9084;50.956;3.106;2023-04-03T14:23:50;5.18;;;1.40;;
17917;SDS011;9084;50.956;3.106;2023-04-03T14:26:20;4.80;;;1.55;;
17917;SDS011;9084;50.956;3.106;2023-04-03T14:28:48;2.30;;;1.63;;
17917;SDS011;9084;50.956;3.106;2023-04-03T14:31:19;3.35;;;1.33;;
17917;SDS011;9084;50.956;3.106;2023-04-03T14:33:45;2.45;;;1.65;;
17917;SDS011;9084;50.956;3.106;2023-04-03T14:38:49;4.68;;;1.70;;
17917;SDS011;9084;50.956;3.106;2023-04-03T14:41:19;3.45;;;1.40;;
17917;SDS011;9084;50.956;3.106;2023-04-03T14:43:47;3.60;;;1.52;;
17917;SDS011;9084;50.956;3.106;2023-04-03T14:48:44;4.53;;;1.80;;
17917;SDS011;9084;50.956;3.106;2023-04-03T14:51:15;3.05;;;1.67;;
17917;SDS011;9084;50.956;3.106;2023-04-03T14:53:43;3.25;;;1.67;;
17917;SDS011;9084;50.956;3.106;2023-04-03T14:56:14;2.35;;;1.30;;
17917;SDS011;9084;50.956;3.106;2023-04-03T14:58:43;8.57;;;1.63;;
17917;SDS011;9084;50.956;3.106;2023-04-03T15:01:14;2.05;;;1.35;;
17917;SDS011;9084;50.956;3.106;2023-04-03T15:03:40;3.50;;;1.45;;
17917;SDS011;9084;50.956;3.106;2023-04-03T15:06:11;3.97;;;1.70;;
17917;SDS011;9084;50.956;3.106;2023-04-03T15:08:42;1.80;;;1.60;;
17917;SDS011;9084;50.956;3.106;2023-04-03T15:11:11;3.17;;;1.55;;
17917;SDS011;9084;50.956;3.106;2023-04-03T15:13:40;1.90;;;1.35;;
17917;SDS011;9084;50.956;3.106;2023-04-03T15:16:12;3.80;;;1.67;;
17917;SDS011;9084;50.956;3.106;2023-04-03T15:18:43;2.53;;;1.33;;
17917;SDS011;9084;50.956;3.106;2023-04-03T15:21:13;3.45;;;1.40;;
17917;SDS011;9084;50.956;3.106;2023-04-03T15:23:39;2.88;;;1.50;;
17917;SDS011;9084;50.956;3.106;2023-04-03T15:26:07;3.17;;;1.90;;
17917;SDS011;9084;50.956;3.106;2023-04-03T15:28:40;4.43;;;1.60;;
17917;SDS011;9084;50.956;3.106;2023-04-03T15:31:09;4.03;;;1.40;;
17917;SDS011;9084;50.956;3.106;2023-04-03T15:33:35;2.60;;;1.20;;
17917;SDS011;9084;50.956;3.106;2023-04-03T15:36:01;1.88;;;1.10;;
17917;SDS011;9084;50.956;3.106;2023-04-03T15:38:30;3.10;;;1.27;;
17917;SDS011;9084;50.956;3.106;2023-04-03T15:40:56;1.52;;;1.25;;
17917;SDS011;9084;50.956;3.106;2023-04-03T15:43:22;4.05;;;1.67;;
17917;SDS011;9084;50.956;3.106;2023-04-03T15:45:50;1.85;;;1.08;;
17917;SDS011;9084;50.956;3.106;2023-04-03T15:48:16;1.90;;;1.08;;
17917;SDS011;9084;50.956;3.106;2023-04-03T15:50:43;2.97;;;1.27;;
17917;SDS011;9084;50.956;3.106;2023-04-03T15:53:09;1.75;;;1.25;;
17917;SDS011;9084;50.956;3.106;2023-04-03T15:55:36;3.42;;;1.13;;
17917;SDS011;9084;50.956;3.106;2023-04-03T15:58:02;3.08;;;1.40;;
17917;SDS011;9084;50.956;3.106;2023-04-03T16:00:28;1.13;;;0.75;;
17917;SDS011;9084;50.956;3.106;2023-04-03T16:02:59;3.70;;;1.33;;
17917;SDS011;9084;50.956;3.106;2023-04-03T16:05:28;1.70;;;1.10;;
17917;SDS011;9084;50.956;3.106;2023-04-03T16:07:54;2.05;;;1.30;;
17917;SDS011;9084;50.956;3.106;2023-04-03T16:10:21;1.67;;;1.10;;
17917;SDS011;9084;50.956;3.106;2023-04-03T16:12:47;1.70;;;1.08;;
17917;SDS011;9084;50.956;3.106;2023-04-03T16:15:13;3.40;;;1.10;;
17917;SDS011;9084;50.956;3.106;2023-04-03T16:17:39;2.25;;;0.85;;
17917;SDS011;9084;50.956;3.106;2023-04-03T16:20:06;3.13;;;1.52;;
17917;SDS011;9084;50.956;3.106;2023-04-03T16:22:35;1.30;;;1.02;;
17917;SDS011;9084;50.956;3.106;2023-04-03T16:25:04;3.38;;;1.30;;
17917;SDS011;9084;50.956;3.106;2023-04-03T16:27:33;1.65;;;1.05;;
17917;SDS011;9084;50.956;3.106;2023-04-03T16:30:03;2.63;;;1.60;;
17917;SDS011;9084;50.956;3.106;2023-04-03T16:32:30;2.65;;;1.50;;
17917;SDS011;9084;50.956;3.106;2023-04-03T16:35:01;2.42;;;1.33;;
17917;SDS011;9084;50.956;3.106;2023-04-03T16:37:34;1.63;;;1.00;;
17917;SDS011;9084;50.956;3.106;2023-04-03T16:40:00;1.58;;;1.13;;
17917;SDS011;9084;50.956;3.106;2023-04-03T16:42:29;3.03;;;1.48;;
17917;SDS011;9084;50.956;3.106;2023-04-03T16:44:57;3.28;;;1.27;;
17917;SDS011;9084;50.956;3.106;2023-04-03T16:47:25;1.95;;;1.35;;
17917;SDS011;9084;50.956;3.106;2023-04-03T16:49:50;1.63;;;1.20;;
17917;SDS011;9084;50.956;3.106;2023-04-03T16:52:21;2.60;;;1.67;;
17917;SDS011;9084;50.956;3.106;2023-04-03T16:54:47;2.58;;;1.20;;
17917;SDS011;9084;50.956;3.106;2023-04-03T16:57:12;1.73;;;1.45;;
17917;SDS011;9084;50.956;3.106;2023-04-03T16:59:38;2.50;;;1.50;;
17917;SDS011;9084;50.956;3.106;2023-04-03T17:02:04;4.28;;;1.73;;
17917;SDS011;9084;50.956;3.106;2023-04-03T17:04:32;3.00;;;1.40;;
17917;SDS011;9084;50.956;3.106;2023-04-03T17:07:00;4.55;;;1.52;;
17917;SDS011;9084;50.956;3.106;2023-04-03T17:09:30;5.30;;;1.50;;
17917;SDS011;9084;50.956;3.106;2023-04-03T17:11:59;3.13;;;1.63;;
17917;SDS011;9084;50.956;3.106;2023-04-03T17:14:25;5.13;;;1.80;;
17917;SDS011;9084;50.956;3.106;2023-04-03T17:16:51;3.47;;;1.80;;
17917;SDS011;9084;50.956;3.106;2023-04-03T17:19:17;3.55;;;1.63;;
17917;SDS011;9084;50.956;3.106;2023-04-03T17:21:43;2.20;;;1.45;;